createdAt,value
2018-06-05T00:02:11.530Z,9.40
2018-06-05T00:06:16.895Z,8.83
2018-06-05T00:10:20.866Z,9.10
2018-06-05T00:14:24.455Z,9.47
2018-06-05T00:18:27.946Z,9.17
2018-06-05T00:22:31.615Z,8.70
2018-06-05T00:26:39.026Z,8.63
2018-06-05T00:30:46.472Z,8.30
2018-06-05T00:34:50.850Z,8.63
2018-06-05T00:38:54.984Z,8.13
2018-06-05T00:42:59.768Z,8.73
2018-06-05T00:47:07.749Z,10.13
2018-06-05T00:51:22.519Z,9.73
2018-06-05T00:55:26.118Z,9.03
2018-06-05T00:59:30.243Z,9.63
2018-06-05T01:03:36.828Z,9.20
2018-06-05T01:07:41.856Z,9.57
2018-06-05T01:11:47.166Z,8.93
2018-06-05T01:15:50.909Z,8.97
2018-06-05T01:19:54.438Z,9.03
2018-06-05T01:23:58.001Z,8.87
2018-06-05T01:28:03.607Z,8.70
2018-06-05T01:32:10.153Z,9.33
2018-06-05T01:36:15.697Z,9.73
2018-06-05T01:40:19.451Z,9.93
2018-06-05T01:44:23.124Z,10.00
2018-06-05T01:48:26.646Z,10.27
2018-06-05T01:52:31.778Z,9.27
2018-06-05T01:56:37.780Z,9.57
2018-06-05T02:00:43.888Z,10.17
2018-06-05T02:04:48.794Z,10.03
2018-06-05T02:08:52.642Z,10.10
2018-06-05T02:12:56.242Z,11.07
2018-06-05T02:17:00.446Z,11.20
2018-06-05T02:21:08.039Z,9.77
2018-06-05T02:25:13.192Z,9.93
2018-06-05T02:29:17.818Z,10.67
2018-06-05T02:33:21.355Z,9.63
2018-06-05T02:37:24.882Z,10.47
2018-06-05T02:41:28.068Z,11.50
2018-06-05T02:45:33.060Z,12.37
2018-06-05T02:49:42.093Z,12.13
2018-06-05T02:53:47.024Z,11.53
2018-06-05T02:57:50.846Z,10.83
2018-06-05T03:01:54.395Z,11.30
2018-06-05T03:05:57.938Z,11.07
2018-06-05T03:10:02.309Z,10.10
2018-06-05T03:14:10.931Z,10.27
2018-06-05T03:18:16.776Z,11.17
2018-06-05T03:22:20.554Z,10.27
2018-06-05T03:26:25.218Z,10.70
2018-06-05T03:30:28.958Z,9.90
2018-06-05T03:34:33.774Z,10.47
2018-06-05T03:38:39.492Z,11.87
2018-06-05T03:42:47.337Z,11.87
2018-06-05T03:46:51.018Z,11.97
2018-06-05T03:50:54.555Z,11.03
2018-06-05T03:54:58.172Z,10.80
2018-06-05T03:59:06.161Z,11.07
2018-06-05T04:03:11.959Z,11.07
2018-06-05T04:07:16.918Z,12.07
2018-06-05T04:11:20.575Z,12.90
2018-06-05T04:15:24.107Z,11.87
2018-06-05T04:19:27.655Z,12.40
2018-06-05T04:23:34.061Z,10.60
2018-06-05T04:27:40.817Z,10.60
2018-06-05T04:31:45.835Z,10.13
2018-06-05T04:35:49.646Z,10.30
2018-06-05T04:39:53.178Z,10.40
2018-06-05T04:43:56.865Z,10.87
2018-06-05T04:48:00.378Z,10.80
2018-06-05T04:52:12.138Z,12.13
2018-06-05T04:56:17.464Z,12.80
2018-06-05T05:00:21.251Z,12.43
2018-06-05T05:04:24.783Z,14.33
2018-06-05T05:08:28.440Z,15.93
2018-06-05T05:12:34.313Z,17.37
2018-06-05T05:16:42.394Z,20.57
2018-06-05T05:20:49.417Z,18.77
2018-06-05T05:24:53.105Z,18.60
2018-06-05T05:28:56.650Z,19.17
2018-06-05T05:33:00.723Z,18.47
2018-06-05T05:37:09.403Z,19.07
2018-06-05T05:41:14.282Z,18.63
2018-06-05T05:45:19.165Z,18.73
2018-06-05T05:49:23.126Z,19.20
2018-06-05T05:53:26.321Z,17.90
2018-06-05T05:57:33.734Z,17.43
2018-06-05T06:01:40.872Z,15.47
2018-06-05T06:05:46.253Z,16.37
2018-06-05T06:09:51.697Z,15.83
2018-06-05T06:13:55.251Z,14.83
2018-06-05T06:17:58.751Z,14.27
2018-06-05T06:22:03.208Z,18.27
2018-06-05T06:26:11.080Z,16.90
2018-06-05T06:30:18.506Z,16.30
2018-06-05T06:34:22.114Z,16.90
2018-06-05T06:38:25.472Z,17.42
2018-06-05T06:42:29.346Z,16.90
2018-06-05T06:46:40.394Z,18.93
2018-06-05T06:50:50.446Z,16.95
2018-06-05T06:54:54.100Z,15.53
2018-06-05T06:58:57.702Z,16.93
2018-06-05T07:03:01.283Z,14.33
2018-06-05T07:07:11.535Z,16.52
2018-06-05T07:11:18.275Z,17.40
2018-06-05T07:15:22.150Z,18.30
2018-06-05T07:19:27.825Z,16.87
2018-06-05T07:23:31.337Z,17.12
2018-06-05T07:27:42.001Z,17.30
2018-06-05T07:31:48.251Z,16.90
2018-06-05T07:35:52.253Z,17.00
2018-06-05T07:39:55.766Z,11.30
2018-06-05T07:43:59.334Z,17.32
2018-06-05T07:48:09.822Z,15.60
2018-06-05T07:52:15.403Z,15.75
2018-06-05T07:56:21.921Z,16.40
2018-06-05T08:00:25.617Z,15.13
2018-06-05T08:04:31.191Z,13.75
2018-06-05T08:08:44.648Z,15.78
2018-06-05T08:12:52.146Z,15.83
2018-06-05T08:16:56.087Z,13.63
2018-06-05T08:21:01.690Z,14.33
2018-06-05T08:25:12.523Z,15.03
2018-06-05T08:29:20.533Z,14.03
2018-06-05T08:33:25.589Z,14.83
2018-06-05T08:37:29.616Z,14.97
2018-06-05T08:41:40.616Z,16.27
2018-06-05T08:45:49.594Z,16.67
2018-06-05T08:49:54.103Z,16.85
2018-06-05T08:53:57.650Z,14.28
2018-06-05T08:58:01.278Z,16.05
2018-06-05T09:02:13.412Z,17.57
2018-06-05T09:06:19.986Z,14.40
2018-06-05T09:10:24.201Z,14.35
2018-06-05T09:14:27.936Z,15.30
2018-06-05T09:18:31.446Z,16.43
2018-06-05T09:22:45.959Z,15.63
2018-06-05T09:26:52.370Z,17.83
2018-06-05T09:31:00.966Z,17.40
2018-06-05T09:35:11.922Z,16.43
2018-06-05T09:39:18.057Z,18.57
2018-06-05T09:43:23.183Z,15.93
2018-06-05T09:47:26.967Z,18.17
2018-06-05T09:51:44.897Z,17.60
2018-06-05T09:55:51.326Z,17.10
2018-06-05T09:59:54.848Z,15.37
2018-06-05T10:03:58.521Z,15.57
2018-06-05T10:08:03.325Z,15.87
2018-06-05T10:12:16.642Z,15.43
2018-06-05T10:16:23.227Z,16.00
2018-06-05T10:20:27.090Z,17.20
2018-06-05T10:24:30.664Z,15.87
2018-06-05T10:28:41.958Z,14.70
2018-06-05T10:32:50.408Z,15.83
2018-06-05T10:36:54.559Z,15.83
2018-06-05T10:40:58.210Z,13.73
2018-06-05T10:45:01.818Z,12.90
2018-06-05T10:49:11.035Z,13.67
2018-06-05T10:53:17.886Z,12.70
2018-06-05T10:57:22.925Z,12.77
2018-06-05T11:01:26.493Z,12.60
2018-06-05T11:05:30.019Z,11.33
2018-06-05T11:09:42.208Z,11.00
2018-06-05T11:13:47.437Z,11.43
2018-06-05T11:17:51.315Z,12.63
2018-06-05T11:21:55.231Z,10.57
2018-06-05T11:26:04.692Z,11.40
2018-06-05T11:30:11.099Z,11.37
2018-06-05T11:34:28.470Z,9.93
2018-06-05T11:38:32.049Z,10.27
2018-06-05T11:42:43.643Z,9.53
2018-06-05T11:46:53.338Z,10.33
2018-06-05T11:50:57.455Z,10.03
2018-06-05T11:55:01.027Z,9.37
2018-06-05T11:59:11.532Z,9.20
2018-06-05T12:03:17.556Z,8.80
2018-06-05T12:07:23.382Z,9.40
2018-06-05T12:11:26.931Z,9.30
2018-06-05T12:15:36.047Z,9.13
2018-06-05T12:20:09.870Z,8.13
2018-06-05T12:24:28.456Z,8.63
2018-06-05T12:28:32.158Z,8.10
2018-06-05T12:32:41.889Z,7.87
2018-06-05T12:36:51.793Z,7.67
2018-06-05T12:41:00.267Z,7.07
2018-06-05T12:45:06.560Z,8.33
2018-06-05T12:49:11.773Z,7.20
2018-06-05T12:53:16.660Z,6.83
2018-06-05T12:57:22.700Z,7.30
2018-06-05T13:01:26.043Z,7.43
2018-06-05T13:05:29.596Z,6.73
2018-06-05T13:09:34.187Z,7.10
2018-06-05T13:13:42.490Z,6.93
2018-06-05T13:17:48.657Z,6.43
2018-06-05T13:21:53.642Z,6.73
2018-06-05T13:25:59.174Z,7.13
2018-06-05T13:30:04.914Z,6.60
2018-06-05T13:34:12.496Z,6.23
2018-06-05T13:38:17.731Z,7.00
2018-06-05T13:42:21.404Z,6.07
2018-06-05T13:46:25.094Z,6.20
2018-06-05T13:50:28.615Z,6.70
2018-06-05T13:54:33.423Z,5.97
2018-06-05T13:58:43.591Z,6.27
2018-06-05T14:02:50.426Z,6.17
2018-06-05T14:07:09.181Z,6.03
2018-06-05T14:11:19.419Z,5.63
2018-06-05T14:15:23.262Z,5.60
2018-06-05T14:19:27.105Z,5.80
2018-06-05T14:23:30.632Z,6.23
2018-06-05T14:27:40.454Z,5.33
2018-06-05T14:31:46.621Z,5.20
2018-06-05T14:35:52.896Z,5.73
2018-06-05T14:39:56.450Z,5.37
2018-06-05T14:44:00.226Z,5.43
2018-06-05T14:48:20.074Z,5.20
2018-06-05T14:52:25.134Z,5.40
2018-06-05T14:56:28.699Z,5.57
2018-06-05T15:00:32.607Z,5.60
2018-06-05T15:04:45.601Z,4.87
2018-06-05T15:08:54.830Z,5.77
2018-06-05T15:13:07.323Z,5.43
2018-06-05T15:17:14.928Z,5.13
2018-06-05T15:21:21.278Z,5.50
2018-06-05T15:25:32.253Z,5.07
2018-06-05T15:29:42.551Z,4.90
2018-06-05T15:33:49.499Z,4.93
2018-06-05T15:37:54.277Z,5.43
2018-06-05T15:42:07.719Z,4.97
2018-06-05T15:46:14.275Z,5.77
2018-06-05T15:50:23.560Z,5.30
2018-06-05T15:54:47.339Z,5.40
2018-06-05T15:58:55.040Z,5.20
2018-06-05T16:03:00.650Z,5.30
2018-06-05T16:07:10.295Z,4.73
2018-06-05T16:11:16.409Z,5.47
2018-06-05T16:15:24.699Z,5.33
2018-06-05T16:19:28.366Z,5.03
2018-06-05T16:23:32.122Z,5.30
2018-06-05T16:27:43.909Z,5.33
2018-06-05T16:31:50.298Z,5.07
2018-06-05T16:35:57.344Z,5.10
2018-06-05T16:40:19.109Z,5.30
2018-06-05T16:44:24.816Z,5.90
2018-06-05T16:48:28.497Z,5.63
2018-06-05T16:52:32.273Z,6.50
2018-06-05T16:56:49.250Z,6.60
2018-06-05T17:00:53.802Z,5.90
2018-06-05T17:05:00.051Z,6.90
2018-06-05T17:09:06.713Z,6.70
2018-06-05T17:13:16.069Z,6.67
2018-06-05T17:17:23.610Z,7.07
2018-06-05T17:21:27.362Z,7.70
2018-06-05T17:25:30.878Z,7.73
2018-06-05T17:29:52.338Z,8.23
2018-06-05T17:33:59.563Z,8.60
2018-06-05T17:38:05.665Z,9.40
2018-06-05T17:42:12.999Z,8.07
2018-06-05T17:46:21.686Z,10.20
2018-06-05T17:50:25.342Z,9.53
2018-06-05T17:54:29.091Z,9.97
2018-06-05T17:58:33.415Z,10.00
2018-06-05T18:02:48.197Z,7.00
2018-06-05T18:06:54.447Z,6.77
2018-06-05T18:11:00.230Z,6.53
2018-06-05T18:15:08.595Z,7.17
2018-06-05T18:19:14.574Z,6.57
2018-06-05T18:23:18.580Z,6.70
2018-06-05T18:27:22.369Z,6.23
2018-06-05T18:31:25.934Z,6.57
2018-06-05T18:35:30.751Z,6.17
2018-06-05T18:39:45.630Z,6.03
2018-06-05T18:44:02.112Z,5.57
2018-06-05T18:48:10.267Z,5.70
2018-06-05T18:52:16.462Z,6.00
2018-06-05T18:56:22.943Z,5.93
2018-06-05T19:00:27.643Z,5.67
2018-06-05T19:04:36.844Z,6.30
2018-06-05T19:08:46.712Z,5.30
2018-06-05T19:12:50.373Z,5.83
2018-06-05T19:16:53.954Z,6.27
2018-06-05T19:20:57.435Z,7.03
2018-06-05T19:25:04.825Z,6.13
2018-06-05T19:29:12.888Z,5.77
2018-06-05T19:33:17.062Z,5.70
2018-06-05T19:37:20.666Z,5.90
2018-06-05T19:41:24.271Z,6.00
2018-06-05T19:45:27.875Z,6.43
2018-06-05T19:49:31.630Z,6.00
2018-06-05T19:53:41.124Z,6.70
2018-06-05T19:57:48.366Z,6.87
2018-06-05T20:01:56.963Z,5.70
2018-06-05T20:06:00.566Z,6.07
2018-06-05T20:10:11.371Z,5.80
2018-06-05T20:14:19.397Z,6.07
2018-06-05T20:18:28.531Z,7.37
2018-06-05T20:22:33.825Z,6.47
2018-06-05T20:26:42.483Z,6.67
2018-06-05T20:30:50.338Z,7.33
2018-06-05T20:34:54.071Z,7.90
2018-06-05T20:38:58.938Z,8.40
2018-06-05T20:43:03.327Z,7.80
2018-06-05T20:47:13.218Z,7.73
2018-06-05T20:51:20.783Z,7.53
2018-06-05T20:55:24.436Z,8.07
2018-06-05T20:59:29.094Z,8.00
2018-06-05T21:03:35.419Z,7.17
2018-06-05T21:07:43.627Z,8.10
2018-06-05T21:11:50.291Z,8.07
2018-06-05T21:15:53.890Z,8.43
2018-06-05T21:19:57.654Z,8.30
2018-06-05T21:24:01.372Z,8.50
2018-06-05T21:28:16.746Z,8.73
2018-06-05T21:32:21.600Z,8.50
2018-06-05T21:36:25.139Z,8.63
2018-06-05T21:40:28.747Z,8.13
2018-06-05T21:44:39.802Z,8.47
2018-06-05T21:48:44.812Z,8.53
2018-06-05T21:52:48.439Z,8.77
2018-06-05T21:56:52.051Z,9.47
2018-06-05T22:00:55.631Z,9.37
2018-06-05T22:05:01.279Z,9.53
2018-06-05T22:09:12.085Z,9.87
2018-06-05T22:13:16.290Z,11.83
2018-06-05T22:17:19.975Z,12.20
2018-06-05T22:21:23.447Z,10.80
2018-06-05T22:25:27.352Z,11.47
2018-06-05T22:29:34.584Z,10.10
2018-06-05T22:33:44.342Z,11.40
2018-06-05T22:37:47.905Z,9.57
2018-06-05T22:41:51.908Z,10.60
2018-06-05T22:45:57.963Z,11.13
2018-06-05T22:50:04.675Z,10.43
2018-06-05T22:54:11.431Z,10.37
2018-06-05T22:58:15.651Z,10.53
2018-06-05T23:02:19.386Z,10.60
2018-06-05T23:06:23.238Z,12.30
2018-06-05T23:10:28.022Z,11.37
2018-06-05T23:14:33.292Z,11.20
2018-06-05T23:18:40.972Z,11.57
2018-06-05T23:22:46.229Z,11.43
2018-06-05T23:26:49.790Z,11.87
2018-06-05T23:30:53.321Z,12.73
2018-06-05T23:35:01.227Z,11.43
2018-06-05T23:39:09.453Z,11.50
2018-06-05T23:43:14.170Z,11.83
2018-06-05T23:47:17.781Z,12.07
2018-06-05T23:51:21.387Z,12.27
2018-06-05T23:55:26.035Z,12.00
2018-06-05T23:59:31.503Z,12.23
